Weather observations for the past three days for
Mesquite, Mesquite Metro Airport
Metric (Imperial)
Date Time (cdt) Wind (kph) Vis. (km) Weather Sky Cond. Temperature (ºC) Relative Humidity Wind Chill (°C) Heat Index (°C) Pressure Precipitation (cm)
Air Dwpt 6 hour altimeter (cm) sea level (mb) 1 hr 3 hr 6 hr
Max. Min.
04 15:50 S 28 G 52 16.09 Partly Cloudy SCT045 27 16 51% 27 75.69 0.0
04 14:50 S 31 G 52 16.09 Fair CLR 27 14 45% 27 75.77 0.0
04 13:50 S 33 G 48 16.09 Fair and Breezy CLR 27 14 45% 27 75.84 0.0
04 12:50 S 28 G 52 16.09 Fair CLR 26 12 42% 26 75.92 0.0
04 11:50 S 28 G 52 16.09 Fair CLR 24 11 44% 25 76 0.0
04 10:50 S 24 G 50 16.09 Fair CLR 23 13 53% 76.02 0.0
04 09:50 S 24 G 41 16.09 Fair CLR 21 13 60% 76.05 0.0
04 08:50 S 20 G 37 16.09 Fair CLR 18 12 68% 76.07 0.0
04 07:50 S 15 16.09 Fair CLR 16 12 77% 76.07 0.0
04 06:50 S 9 16.09 Fair CLR 13 11 88% 76.05 0.0
04 06:35 S 9 16.09 Fair CLR 13 10.3 84% 76.05 0.0
04 06:15 S 11 16.09 Fair CLR 13.7 10.7 82% 76.05 0.0
04 05:55 S 13 16.09 Fair CLR 14 11 82% 76.05 0.0
04 05:35 S 15 16.09 Fair CLR 13.9 11 83% 76.05 0.0
04 05:15 S 13 16.09 Fair CLR 13.5 10.3 81% 76.05 0.0
04 04:55 S 9 16.09 Fair CLR 13.9 10.2 79% 76.05 0.0
04 04:35 S 11 16.09 Fair CLR 14.4 10.5 78% 76.05 0.0
04 04:15 S 15 16.09 Fair CLR 15 10.7 76% 76.07 0.0
04 03:55 S 15 16.09 Fair CLR 14.6 10.7 78% 76.07 0.0
04 03:35 S 17 16.09 Fair CLR 13.6 10.6 82% 76.07 0.0
04 03:15 S 13 16.09 Fair CLR 12.7 9.7 82% 76.1 0.0
04 02:55 S 11 16.09 Fair CLR 12.6 9.5 82% 76.1 0.0
04 02:35 S 11 16.09 Fair CLR 12.8 9.4 80% 76.1 0.0
04 02:15 S 9 16.09 Fair CLR 13.1 9.7 80% 76.12 0.0
04 01:55 S 11 16.09 Fair CLR 13.5 9.7 78% 76.15 0.0
04 01:35 S 9 16.09 Fair CLR 13.8 10 78% 76.17 0.0
04 01:15 S 9 16.09 Fair CLR 13.5 10 80% 76.17 0.0
04 00:55 S 11 16.09 Fair CLR 13.5 9.8 25.5 13.5 79% 76.2 0.0
04 00:35 S 11 16.09 Fair CLR 13.9 9.6 75% 76.2 0.0
04 00:15 S 9 16.09 Fair CLR 14.2 9.6 74% 76.23 0.0
03 23:55 S 9 16.09 Fair CLR 14.5 9.7 73% 76.23 0.0
03 23:35 S 9 16.09 Fair CLR 15.1 9.8 71% 76.25 0.0
03 23:15 S 9 16.09 Fair CLR 15.2 9.5 69% 76.23 0.0
03 22:55 S 9 16.09 Fair CLR 15.8 9.8 68% 76.25 0.0
03 22:35 S 9 16.09 Fair CLR 15.7 9.5 67% 76.23 0.0
03 22:15 S 9 16.09 Fair CLR 16.3 9.6 65% 76.23 0.0
03 21:55 S 9 16.09 Fair CLR 17.1 9.5 61% 76.23 0.0
03 21:35 S 9 16.09 Fair CLR 17.7 9.3 58% 76.23 0.0
03 21:15 S 7 16.09 Fair CLR 18 9.2 57% 76.23 0.0
03 20:55 S 7 16.09 Fair CLR 18.5 9.4 56% 76.23 0.0
03 19:50 S 13 16.09 Fair CLR 22 9 44% 76.2 0.0
03 18:50 S 20 16.09 Fair CLR 26 7 30% 26 76.23 0.0
03 17:50 S 19 16.09 A Few Clouds FEW050 27 8 30% 26 76.23 0.0
03 16:50 S 22 G 37 16.09 Fair CLR 28 7 26% 27 76.28 0.0
03 15:50 S 15 16.09 Partly Cloudy SCT050 28 8 28% 27 76.35 0.0
03 13:50 SW 17 G 37 16.09 Fair CLR 28 8 28% 27 76.48 0.0
03 12:50 SW 17 G 28 16.09 Fair CLR 27 9 32% 27 76.56 0.0
03 11:50 S 15 16.09 Fair CLR 26 9 34% 26 76.63 0.0
03 10:50 S 19 16.09 Fair CLR 24 9 39% 25 76.66 0.0
03 09:50 S 15 16.09 Fair CLR 21 11 53% 76.63 0.0
03 08:50 S 9 16.09 Fair CLR 17 12 73% 76.66 0.0
03 07:50 SE 7 16.09 Fair CLR 13 11 88% 76.61 0.0
03 06:50 S 6 16.09 Fair CLR 10 8 88% 76.58 0.0
03 06:35 Calm 16.09 Fair CLR 10.1 7.6 85% 76.58 0.0
03 06:15 Calm 16.09 Fair CLR 10.1 7.6 85% 76.56 0.0
03 05:55 Calm 16.09 Fair CLR 10.2 7.7 85% 76.56 0.0
03 05:35 S 6 16.09 Fair CLR 10.2 7.5 84% 76.53 0.0
03 05:15 S 6 16.09 Fair CLR 10.1 7.2 82% 76.53 0.0
03 04:55 S 6 16.09 Fair CLR 10.1 7 81% 76.53 0.0
03 04:35 Calm 16.09 Fair CLR 10.1 7 81% 76.53 0.0
03 04:15 Calm 16.09 Fair CLR 10.3 7 80% 76.53 0.0
03 03:55 Calm 16.09 Fair CLR 10.7 7.6 81% 76.5 0.0
03 03:35 Calm 16.09 Fair CLR 10.8 7.5 80% 76.5 0.0
03 03:15 S 6 16.09 Fair CLR 11.3 8.1 81% 76.5 0.0
03 02:55 Calm 16.09 Fair CLR 11.8 8.5 80% 76.5 0.0
03 02:35 Calm 16.09 Fair CLR 11.7 8 78% 76.53 0.0
03 02:15 S 6 16.09 Fair CLR 11.7 7.9 78% 76.53 0.0
03 01:55 Calm 16.09 Fair CLR 12.1 8.6 79% 76.53 0.0
03 01:35 S 6 16.09 Fair CLR 12.5 8.5 77% 76.53 0.0
03 01:15 S 7 16.09 Fair CLR 13.1 8.5 74% 76.53 0.0
03 00:55 S 7 16.09 Fair CLR 13.3 8.8 26.3 13.2 74% 76.53 0.0
03 00:30 S 7 16.09 Fair CLR 13.5 8.2 71% 76.53 0.0
03 00:15 S 7 16.09 Fair CLR 14 8.1 68% 76.5 0.0
02 23:55 S 6 16.09 Fair CLR 14.2 8.5 69% 76.53 0.0
02 23:35 S 7 16.09 Fair CLR 14.3 8.6 69% 76.5 0.0
02 23:15 S 7 16.09 Fair CLR 14.4 8.7 69% 76.5 0.0
02 22:55 S 9 16.09 Fair CLR 14.7 8.8 68% 76.53 0.0
02 22:35 S 9 16.09 Fair CLR 15 8.8 67% 76.5 0.0
02 22:15 S 7 16.09 Fair CLR 15.3 9 66% 76.5 0.0
02 21:55 S 7 16.09 Fair CLR 16 9 63% 76.5 0.0
02 21:35 SE 6 16.09 Fair CLR 16.2 8.3 60% 76.48 0.0
02 21:15 SE 6 16.09 Fair CLR 17 7.6 54% 76.45 0.0
02 20:55 Calm 16.09 Fair CLR 17.9 7.7 51% 76.45 0.0
02 19:50 S 9 16.09 Fair CLR 18 8 52% 76.45 0.0
02 18:50 N 7 16.09 Fair CLR 27 4 23% 26 76.43 0.0
02 17:50 NW 9 16.09 Fair CLR 25 4 26% 25 76.43 0.0
02 16:50 NW 6 16.09 Fair CLR 26 4 24% 26 76.45 0.0
02 15:50 N 7 16.09 Fair CLR 26 4 24% 26 76.5 0.0
02 14:50 NE 11 16.09 Fair CLR 24 4 27% 25 76.56 0.0
02 12:50 N 9 16.09 Fair CLR 23 4 29% 76.66 0.0
02 11:50 N 13 16.09 Fair CLR 22 4 31% 76.71 0.0
02 10:50 NE 6 16.09 Fair CLR 21 7 40% 76.68 0.0
02 09:50 NW 6 16.09 Fair CLR 19 8 49% 76.68 0.0
02 08:50 NW 9 16.09 Fair CLR 15 10 72% 76.63 0.0
02 07:51 Calm 16.09 Fair CLR 13 11 88% 76.61 0.0
02 06:55 Calm 16.09 Fair CLR 9 8 94% 76.53 0.0
02 06:35 NW 6 16.09 Fair CLR 9.7 7.5 86% 76.5 0.0
02 06:15 NW 6 16.09 Fair CLR 10.2 8 86% 76.45 0.0
02 05:55 W 6 16.09 Fair CLR 10.1 7.8 86% 76.48 0.0
02 05:35 Calm 16.09 Fair CLR 10.1 7.6 85% 76.45 0.0
02 05:15 NW 7 16.09 Fair CLR 11 8.6 85% 76.43 0.0
02 04:55 NW 7 16.09 Fair CLR 10.9 8.6 86% 76.43 0.0
02 04:35 NW 6 16.09 Fair CLR 11 8.4 84% 76.43 0.0
02 04:15 W 9 16.09 Fair CLR 11 8.2 83% 76.43 0.0
02 03:55 W 9 16.09 Fair CLR 10.7 8 84% 76.43 0.0
02 03:35 W 6 16.09 Fair CLR 10.5 8 85% 76.43 0.0
02 03:15 NW 7 16.09 Fair CLR 10.5 7.7 83% 76.43 0.0
02 02:55 W 6 16.09 Fair CLR 10.7 7.7 82% 76.43 0.0
02 02:35 W 6 16.09 Fair CLR 11 7.7 80% 76.43 0.0
02 02:15 Calm 16.09 Fair CLR 11 7.6 80% 76.43 0.0
02 01:55 W 6 16.09 Fair CLR 11.2 8 81% 76.45 0.0
02 01:35 W 7 16.09 Fair CLR 11.5 8.4 81% 76.45 0.0
02 01:15 Calm 16.09 Fair CLR 11 7.2 78% 76.45 0.0
02 00:55 Calm 16.09 Fair CLR 11.5 8 15.5 11.5 79% 76.43 0.0
02 00:35 Calm 16.09 Fair CLR 11.5 7.7 78% 76.45 0.0
02 00:15 Calm 16.09 Fair CLR 12 7.7 75% 76.45 0.0
01 23:55 Calm 16.09 Partly Cloudy SCT120 12.6 8.5 76% 76.45 0.0
01 23:35 Calm 16.09 Mostly Cloudy BKN120 13.1 8.8 75% 76.43 0.0
01 23:15 Calm 16.09 Mostly Cloudy SCT060 SCT075 BKN120 13.5 9.1 75% 76.43 0.0
01 22:55 Calm 16.09 Overcast SCT060 OVC120 14 8.8 71% 76.43 0.0
01 22:35 Calm 16.09 Overcast OVC110 14.1 8.8 71% 76.43 0.0
01 22:15 Calm 16.09 Mostly Cloudy BKN110 14 9.1 73% 76.4 0.0
01 21:55 Calm 16.09 Mostly Cloudy BKN100 14 9.2 73% 76.4 0.0
01 21:35 Calm 16.09 Overcast OVC100 14.2 10 76% 76.38 0.0
01 21:15 Calm 16.09 Overcast OVC100 14.3 9.9 75% 76.38 0.0
01 20:55 E 6 16.09 Overcast SCT070 OVC100 14.5 9.8 74% 76.33 0.0
01 19:50 Calm 16.09 NULL NULL 15 10 72% 76.28 0.0
01 18:50 NE 9 16.09 Light Rain OVC090 16 9 63% 76.23 0.0
01 17:50 NE 9 16.09 Overcast OVC100 16 8 59% 76.17 0.0
01 16:50 N 9 16.09 Overcast OVC080 16 8 59% 76.17 0.0
Date Time (cdt) Wind (kph) Vis. (km) Weather Sky Cond. Air Dwpt Max. Min. Relative Humidity Wind Chill (°C) Heat Index (°C) altimeter (cm) sea level (mb) 1 hr 3 hr 6 hr
6 hour
Temperature (ºC) Pressure Precipitation (cm)